Terminal Aerodrome Forecast
Issued by NWS Sterling, VA

Current Version | Previous Version | Graphics & Text | Print | Product List | Glossary On
Versions: 1 2 3 4 5 6 7 8 9 10 11 12 13 14 15
000
FTUS41 KLWX 212105 AAB
TAFMRB
TAF AMD
KMRB 212105Z 2121/2218 16008KT P6SM SKC
     FM220500 21005KT P6SM BKN050
     FM220900 27004KT P6SM BKN035
     FM221200 31009KT P6SM BKN090
     FM221300 31011KT P6SM SCT080
     FM221600 32014G22KT P6SM FEW250=

USA.gov is the U.S. government's official web portal to all federal, state and local government web resources and services.